Time;durP1;ratioP1;P1;durP2;ratioP2;P2;SDS_P1;SDS_P2;PMS_P1;PMS_P2;Temp;Humidity;BMP_temperature;BMP_pressure;BME280_temperature;BME280_humidity;BME280_pressure;Samples;Min_cycle;Max_cycle;Signal;HPM_P1;HPM_P2
2022/08/18 00:01:22;;;;;;;31.23;17.83;;;;;;;;;;5095271;28;20107;-82
2022/08/18 00:03:49;;;;;;;25.17;16.00;;;;;;;;;;5076559;28;20024;-82
2022/08/18 00:06:15;;;;;;;29.58;18.75;;;;;;;;;;5093191;28;20043;-81
2022/08/18 00:08:41;;;;;;;20.85;16.30;;;;;;;;;;5076582;28;20028;-81
2022/08/18 00:11:07;;;;;;;25.05;16.75;;;;;;;;;;5094960;28;20101;-82
2022/08/18 00:13:34;;;;;;;26.67;15.57;;;;;;;;;;5076490;28;20458;-81
2022/08/18 00:16:00;;;;;;;26.02;16.48;;;;;;;;;;5094792;28;20028;-81
2022/08/18 00:18:26;;;;;;;22.17;16.15;;;;;;;;;;5094474;28;20047;-82
2022/08/18 00:20:52;;;;;;;24.60;16.25;;;;;;;;;;5076088;28;20458;-82
2022/08/18 00:23:18;;;;;;;26.45;16.63;;;;;;;;;;5096152;28;20523;-82
2022/08/18 00:25:44;;;;;;;26.17;17.95;;;;;;;;;;5096367;28;20032;-81
2022/08/18 00:28:12;;;;;;;27.48;17.52;;;;;;;;;;5114756;28;20020;-82
2022/08/18 00:30:39;;;;;;;30.73;19.13;;;;;;;;;;5114641;28;20020;-82
2022/08/18 00:33:05;;;;;;;30.63;18.80;;;;;;;;;;5096460;28;20466;-82
2022/08/18 00:35:33;;;;;;;27.58;18.23;;;;;;;;;;5096211;28;20024;-82
2022/08/18 00:38:01;;;;;;;29.17;19.60;;;;;;;;;;5096353;28;20024;-81
2022/08/18 00:40:29;;;;;;;28.90;19.60;;;;;;;;;;5114608;28;20409;-81
2022/08/18 00:42:56;;;;;;;21.38;16.25;;;;;;;;;;5114492;28;20031;-82
2022/08/18 00:45:28;;;;;;;27.30;18.58;;;;;;;;;;5114344;28;20418;-81
2022/08/18 00:47:54;;;;;;;20.95;16.17;;;;;;;;;;5112695;28;20024;-82
2022/08/18 00:50:23;;;;;;;27.90;19.17;;;;;;;;;;5114157;28;20140;-82
2022/08/18 00:52:55;;;;;;;31.05;19.85;;;;;;;;;;5112872;28;20381;-82
2022/08/18 00:55:22;;;;;;;28.10;18.35;;;;;;;;;;5114401;28;20537;-82
2022/08/18 00:57:50;;;;;;;26.35;17.10;;;;;;;;;;5114200;28;20036;-81
2022/08/18 01:00:16;;;;;;;28.98;19.25;;;;;;;;;;5093294;28;20134;-82
2022/08/18 01:02:44;;;;;;;24.98;16.67;;;;;;;;;;5075733;28;20043;-81
2022/08/18 01:05:20;;;;;;;32.00;16.95;;;;;;;;;;5094051;28;20027;-81
2022/08/18 01:07:47;;;;;;;26.90;15.60;;;;;;;;;;5075719;28;20016;-81
2022/08/18 01:10:17;;;;;;;23.13;15.48;;;;;;;;;;5093755;28;20027;-82
2022/08/18 01:12:43;;;;;;;22.33;14.63;;;;;;;;;;5093748;28;20099;-82
2022/08/18 01:15:12;;;;;;;23.25;14.18;;;;;;;;;;5093652;28;20031;-81
2022/08/18 01:23:14;;;;;;;22.52;12.60;;;;;;;;;;5093995;28;20441;-82
2022/08/18 01:25:59;;;;;;;16.77;12.70;;;;;;;;;;5075536;28;20095;-82
2022/08/18 01:28:26;;;;;;;19.50;11.73;;;;;;;;;;5093641;28;20082;-81
2022/08/18 01:30:59;;;;;;;19.70;12.85;;;;;;;;;;5093668;28;20035;-82
2022/08/18 01:33:31;;;;;;;20.13;13.45;;;;;;;;;;5075525;28;20768;-82
2022/08/18 01:35:58;;;;;;;22.25;13.65;;;;;;;;;;5075416;28;20035;-81
2022/08/18 01:38:25;;;;;;;18.95;13.20;;;;;;;;;;5075455;28;20385;-81
2022/08/18 01:40:53;;;;;;;18.77;13.02;;;;;;;;;;5106416;28;20032;-82
2022/08/18 01:43:19;;;;;;;18.52;11.20;;;;;;;;;;5113672;28;20470;-81
2022/08/18 01:45:46;;;;;;;17.60;12.73;;;;;;;;;;5113751;28;20539;-81
2022/08/18 01:48:12;;;;;;;23.92;14.65;;;;;;;;;;5113570;28;20024;-81
2022/08/18 01:50:40;;;;;;;21.17;12.80;;;;;;;;;;5113944;28;20034;-81
2022/08/18 01:53:07;;;;;;;19.85;14.48;;;;;;;;;;5113572;28;20453;-81
2022/08/18 01:55:35;;;;;;;24.98;14.07;;;;;;;;;;5113516;28;20035;-81
2022/08/18 01:58:01;;;;;;;23.02;15.05;;;;;;;;;;5113335;28;20086;-81
2022/08/18 02:00:28;;;;;;;28.38;16.10;;;;;;;;;;5096959;28;20154;-81
2022/08/18 02:02:55;;;;;;;24.23;15.82;;;;;;;;;;5117795;28;20031;-82
2022/08/18 02:05:30;;;;;;;23.63;14.50;;;;;;;;;;5117757;28;20077;-81
2022/08/18 02:07:56;;;;;;;30.02;16.17;;;;;;;;;;5117432;28;20019;-81
2022/08/18 02:10:22;;;;;;;30.33;16.83;;;;;;;;;;5117351;28;20074;-81
2022/08/18 02:12:48;;;;;;;25.30;16.02;;;;;;;;;;5117399;28;20023;-81
2022/08/18 02:15:14;;;;;;;31.90;18.88;;;;;;;;;;5098643;28;20051;-81
2022/08/18 02:17:41;;;;;;;29.38;18.05;;;;;;;;;;5097637;28;20024;-81
2022/08/18 02:20:08;;;;;;;29.65;21.25;;;;;;;;;;5116658;28;20032;-82
2022/08/18 02:22:34;;;;;;;29.25;21.23;;;;;;;;;;5098799;28;20031;-82
2022/08/18 02:25:00;;;;;;;32.15;20.63;;;;;;;;;;5083014;28;20158;-81
2022/08/18 02:27:27;;;;;;;35.05;22.23;;;;;;;;;;5078605;28;20025;-81
2022/08/18 02:29:53;;;;;;;33.22;23.30;;;;;;;;;;5078532;28;20020;-82
2022/08/18 02:32:19;;;;;;;31.55;19.83;;;;;;;;;;5078536;28;20116;-82
2022/08/18 02:34:45;;;;;;;38.60;23.30;;;;;;;;;;5078639;28;20027;-82
2022/08/18 02:37:11;;;;;;;41.17;24.98;;;;;;;;;;5096662;28;20032;-82
2022/08/18 02:39:37;;;;;;;35.33;22.08;;;;;;;;;;5078386;28;20028;-82
2022/08/18 02:42:04;;;;;;;38.65;23.48;;;;;;;;;;5078422;28;20051;-82
2022/08/18 02:44:30;;;;;;;38.03;24.90;;;;;;;;;;5078349;28;20024;-82
2022/08/18 02:46:56;;;;;;;32.22;20.35;;;;;;;;;;5078259;28;20462;-82
2022/08/18 02:49:24;;;;;;;34.08;22.73;;;;;;;;;;5078353;28;20165;-82
2022/08/18 02:51:50;;;;;;;27.23;20.98;;;;;;;;;;5077932;28;20024;-82
2022/08/18 02:54:18;;;;;;;39.33;25.42;;;;;;;;;;5077978;28;20496;-82
2022/08/18 02:56:45;;;;;;;40.92;24.98;;;;;;;;;;5096372;28;20398;-82
2022/08/18 02:59:18;;;;;;;42.45;25.42;;;;;;;;;;5116776;28;20015;-82
2022/08/18 03:01:45;;;;;;;42.65;24.25;;;;;;;;;;5116444;28;20022;-82
2022/08/18 03:04:14;;;;;;;32.70;23.95;;;;;;;;;;5098138;28;20830;-82
2022/08/18 03:06:40;;;;;;;35.08;23.13;;;;;;;;;;5097968;28;20031;-82
2022/08/18 03:09:07;;;;;;;38.92;22.63;;;;;;;;;;5116314;28;20019;-82
2022/08/18 03:11:33;;;;;;;34.10;22.58;;;;;;;;;;5097428;28;20106;-82
2022/08/18 03:14:00;;;;;;;38.60;24.95;;;;;;;;;;5116308;28;20022;-82
2022/08/18 03:16:26;;;;;;;38.58;25.52;;;;;;;;;;5116051;28;20110;-82
2022/08/18 03:18:53;;;;;;;49.35;27.30;;;;;;;;;;5097776;28;20445;-82
2022/08/18 03:21:21;;;;;;;44.03;26.70;;;;;;;;;;5115979;28;20486;-82
2022/08/18 03:23:48;;;;;;;46.78;26.23;;;;;;;;;;5115940;28;20023;-82
2022/08/18 03:26:15;;;;;;;44.13;28.63;;;;;;;;;;5097605;28;20401;-81
2022/08/18 03:28:42;;;;;;;47.33;27.13;;;;;;;;;;5097738;28;20026;-82
2022/08/18 03:31:08;;;;;;;38.65;24.63;;;;;;;;;;5097432;28;20052;-82
2022/08/18 03:33:35;;;;;;;43.03;25.98;;;;;;;;;;5115824;28;20071;-82
2022/08/18 03:36:05;;;;;;;31.55;21.67;;;;;;;;;;5097570;28;20035;-82
2022/08/18 03:38:31;;;;;;;36.85;23.60;;;;;;;;;;5115866;28;20051;-81
2022/08/18 03:40:57;;;;;;;40.08;24.10;;;;;;;;;;5115649;28;20020;-82
2022/08/18 03:43:23;;;;;;;38.33;23.48;;;;;;;;;;5115629;28;20424;-81
2022/08/18 03:45:49;;;;;;;31.90;22.58;;;;;;;;;;5115514;28;20381;-81
2022/08/18 03:48:15;;;;;;;30.73;21.23;;;;;;;;;;5115565;28;20023;-80
2022/08/18 03:50:43;;;;;;;35.45;21.63;;;;;;;;;;5097229;28;20055;-81
2022/08/18 03:53:10;;;;;;;30.60;20.80;;;;;;;;;;5115567;28;20020;-81
2022/08/18 03:55:36;;;;;;;31.48;22.10;;;;;;;;;;5095812;28;20106;-81
2022/08/18 03:58:02;;;;;;;29.30;20.15;;;;;;;;;;5094931;28;20083;-81
2022/08/18 04:00:30;;;;;;;32.05;19.63;;;;;;;;;;5076814;28;20050;-81
2022/08/18 04:02:58;;;;;;;38.33;22.20;;;;;;;;;;5095116;28;20035;-81
2022/08/18 04:05:24;;;;;;;31.65;21.25;;;;;;;;;;5076522;28;20104;-81
2022/08/18 04:07:50;;;;;;;34.58;21.27;;;;;;;;;;5076479;28;20023;-81
2022/08/18 04:10:16;;;;;;;33.95;21.27;;;;;;;;;;5094925;28;20016;-81
2022/08/18 04:12:42;;;;;;;35.05;22.40;;;;;;;;;;5076439;28;20490;-81
2022/08/18 04:15:08;;;;;;;33.53;22.02;;;;;;;;;;5076395;28;20043;-81
2022/08/18 04:17:35;;;;;;;34.13;22.00;;;;;;;;;;5076318;28;20222;-81
2022/08/18 04:20:01;;;;;;;35.15;22.00;;;;;;;;;;5094491;28;20020;-81
2022/08/18 04:22:27;;;;;;;35.67;24.30;;;;;;;;;;5094755;28;20381;-81
2022/08/18 04:24:54;;;;;;;35.70;22.70;;;;;;;;;;5094306;28;20459;-81
2022/08/18 04:27:21;;;;;;;31.58;21.63;;;;;;;;;;5094341;28;20020;-81
2022/08/18 04:29:47;;;;;;;28.58;18.58;;;;;;;;;;5076183;28;20070;-81
2022/08/18 04:32:14;;;;;;;29.50;19.50;;;;;;;;;;5094167;28;20031;-81
2022/08/18 04:34:40;;;;;;;32.03;19.60;;;;;;;;;;5076064;28;20024;-81
2022/08/18 04:37:08;;;;;;;30.13;19.70;;;;;;;;;;5094158;28;20066;-81
2022/08/18 04:39:34;;;;;;;35.70;20.85;;;;;;;;;;5075937;28;20024;-81
2022/08/18 04:42:02;;;;;;;28.63;19.63;;;;;;;;;;5094368;28;20056;-81
2022/08/18 04:44:28;;;;;;;32.03;22.20;;;;;;;;;;5093931;28;20016;-81
2022/08/18 04:46:54;;;;;;;43.20;25.27;;;;;;;;;;5075786;28;20061;-81
2022/08/18 04:49:24;;;;;;;34.35;23.08;;;;;;;;;;5075826;28;20030;-81
2022/08/18 04:54:39;;;;;;;40.38;25.70;;;;;;;;;;5094034;28;20031;-82
2022/08/18 04:57:12;;;;;;;41.88;25.60;;;;;;;;;;5105846;28;20490;-81
2022/08/18 04:59:39;;;;;;;35.90;24.15;;;;;;;;;;5114319;28;20027;-81
2022/08/18 05:02:06;;;;;;;43.90;25.75;;;;;;;;;;5113405;27;20826;-81
2022/08/18 05:04:33;;;;;;;40.35;24.02;;;;;;;;;;5113972;28;20049;-81
2022/08/18 05:07:00;;;;;;;33.58;22.10;;;;;;;;;;5095846;28;20062;-81
2022/08/18 05:09:26;;;;;;;43.80;23.10;;;;;;;;;;5114100;28;20020;-81
2022/08/18 05:11:52;;;;;;;31.50;19.67;;;;;;;;;;5112771;28;20023;-81
2022/08/18 05:14:19;;;;;;;33.90;21.92;;;;;;;;;;5112738;28;20016;-81
2022/08/18 05:16:45;;;;;;;30.33;21.13;;;;;;;;;;5113890;28;20549;-81
2022/08/18 05:19:13;;;;;;;34.15;21.65;;;;;;;;;;5095777;28;20114;-81
2022/08/18 05:21:41;;;;;;;40.65;22.80;;;;;;;;;;5113885;28;20016;-81
2022/08/18 05:24:07;;;;;;;42.78;24.23;;;;;;;;;;5114009;28;20023;-82
2022/08/18 05:26:34;;;;;;;35.80;21.70;;;;;;;;;;5095477;28;20381;-81
2022/08/18 05:29:00;;;;;;;38.88;23.23;;;;;;;;;;5095512;28;20461;-81
2022/08/18 05:31:27;;;;;;;37.85;22.38;;;;;;;;;;5095518;28;20567;-81
2022/08/18 05:33:54;;;;;;;37.22;22.05;;;;;;;;;;5113471;28;20020;-79
2022/08/18 05:36:26;;;;;;;31.92;20.20;;;;;;;;;;5098017;28;20460;-80
2022/08/18 05:38:52;;;;;;;33.40;21.45;;;;;;;;;;5117840;28;20068;-81
2022/08/18 05:41:34;;;;;;;26.77;18.92;;;;;;;;;;5098641;28;20036;-80
2022/08/18 05:44:01;;;;;;;30.77;20.03;;;;;;;;;;5099630;28;20066;-80
2022/08/18 05:46:46;;;;;;;28.58;19.27;;;;;;;;;;5104530;27;20059;-80
2022/08/18 05:49:12;;;;;;;24.13;17.38;;;;;;;;;;5138135;27;20380;-80
2022/08/18 05:51:43;;;;;;;32.67;21.02;;;;;;;;;;5138074;27;20380;-80
2022/08/18 05:56:56;;;;;;;32.00;18.80;;;;;;;;;;5137828;27;20054;-80
2022/08/18 05:59:27;;;;;;;30.92;20.02;;;;;;;;;;5119379;27;20122;-80
2022/08/18 06:01:56;;;;;;;31.17;20.85;;;;;;;;;;5135508;27;20019;-79
2022/08/18 06:04:28;;;;;;;36.05;19.13;;;;;;;;;;5116391;28;20019;-79
2022/08/18 06:06:56;;;;;;;31.77;19.25;;;;;;;;;;5117446;28;20030;-79
2022/08/18 06:09:32;;;;;;;30.63;19.23;;;;;;;;;;5117165;28;20015;-81
2022/08/18 06:12:04;;;;;;;26.05;17.15;;;;;;;;;;5116955;28;20038;-82
2022/08/18 06:14:30;;;;;;;29.67;19.65;;;;;;;;;;5116987;28;20045;-80
2022/08/18 06:17:08;;;;;;;29.92;17.70;;;;;;;;;;5116941;28;20028;-80
2022/08/18 06:19:34;;;;;;;25.85;17.23;;;;;;;;;;5098671;28;20065;-80
2022/08/18 06:22:20;;;;;;;26.15;15.38;;;;;;;;;;5117190;28;20164;-80
2022/08/18 06:24:51;;;;;;;25.83;16.88;;;;;;;;;;5102919;28;20063;-81
2022/08/18 06:27:23;;;;;;;21.65;15.25;;;;;;;;;;5078463;28;20454;-81
2022/08/18 06:29:52;;;;;;;20.80;14.60;;;;;;;;;;5096920;28;20027;-81
2022/08/18 06:32:33;;;;;;;23.02;14.43;;;;;;;;;;5096463;28;20091;-82
2022/08/18 06:35:11;;;;;;;21.60;14.90;;;;;;;;;;5096811;28;20420;-82
2022/08/18 06:38:37;;;;;;;19.70;14.88;;;;;;;;;;5078415;28;20390;-82
2022/08/18 06:40:27;;;;;;;22.80;14.63;;;;;;;;;;5096143;28;20028;-85
2022/08/18 06:42:53;;;;;;;22.58;14.10;;;;;;;;;;5078071;28;20035;-85
2022/08/18 06:45:20;;;;;;;16.33;12.38;;;;;;;;;;5095835;28;20027;-84
2022/08/18 06:47:46;;;;;;;19.25;12.60;;;;;;;;;;5120525;27;20051;-82
2022/08/18 06:50:20;;;;;;;18.65;11.57;;;;;;;;;;5122477;27;20046;-81
2022/08/18 06:52:58;;;;;;;18.38;11.77;;;;;;;;;;5123816;27;20024;-80
2022/08/18 06:55:50;;;;;;;19.75;12.77;;;;;;;;;;5094607;28;20016;-80
2022/08/18 06:58:16;;;;;;;20.02;12.48;;;;;;;;;;5108221;28;20052;-81
2022/08/18 07:00:51;;;;;;;18.05;11.32;;;;;;;;;;5104019;28;20052;-81
2022/08/18 07:03:19;;;;;;;18.50;11.15;;;;;;;;;;5091665;28;20115;-81
2022/08/18 07:06:00;;;;;;;18.63;11.30;;;;;;;;;;5125174;27;20019;-83
2022/08/18 07:08:43;;;;;;;15.90;10.70;;;;;;;;;;5104580;28;20420;-83
2022/08/18 07:11:26;;;;;;;13.88;9.30;;;;;;;;;;5116265;28;20082;-84
2022/08/18 07:13:53;;;;;;;13.70;9.35;;;;;;;;;;5116039;28;20466;-82
2022/08/18 07:16:24;;;;;;;16.67;9.05;;;;;;;;;;5131772;27;20034;-90
2022/08/18 07:18:51;;;;;;;14.05;9.40;;;;;;;;;;5116613;28;20023;-90
2022/08/18 07:21:43;;;;;;;13.43;9.55;;;;;;;;;;5116217;28;20030;-88
2022/08/18 07:24:13;;;;;;;15.88;8.63;;;;;;;;;;5093296;28;20085;-89
2022/08/18 07:26:59;;;;;;;11.88;8.52;;;;;;;;;;5116070;28;20031;-89
2022/08/18 07:29:25;;;;;;;13.98;8.05;;;;;;;;;;5116192;28;20020;-90
2022/08/18 07:31:53;;;;;;;16.23;8.82;;;;;;;;;;5116183;28;20027;-89
2022/08/18 07:34:36;;;;;;;13.45;8.65;;;;;;;;;;5115833;28;20106;-89
2022/08/18 07:37:07;;;;;;;10.32;8.10;;;;;;;;;;5104350;28;20095;-89
2022/08/18 07:39:39;;;;;;;15.35;8.48;;;;;;;;;;5111373;28;20020;-90
2022/08/18 07:42:05;;;;;;;;;;;;;;;;;;5095858;28;20032;-89
2022/08/18 07:44:34;;;;;;;10.85;7.55;;;;;;;;;;5095372;28;19904;-89
2022/08/18 07:47:12;;;;;;;11.35;7.10;;;;;;;;;;5111412;28;20024;-89
2022/08/18 07:49:39;;;;;;;12.40;6.85;;;;;;;;;;5111165;28;20032;-89
2022/08/18 07:52:07;;;;;;;13.55;6.68;;;;;;;;;;5110902;28;20031;-89
2022/08/18 07:54:49;;;;;;;9.95;6.53;;;;;;;;;;5095168;28;20050;-88
2022/08/18 07:57:35;;;;;;;8.63;5.95;;;;;;;;;;5094855;28;20056;-89
2022/08/18 08:00:08;;;;;;;11.30;7.90;;;;;;;;;;5095487;28;20016;-88
2022/08/18 08:02:35;;;;;;;11.80;7.25;;;;;;;;;;5096861;28;20023;-89
2022/08/18 08:05:24;;;;;;;12.68;7.18;;;;;;;;;;5097099;28;20024;-89
2022/08/18 08:07:55;;;;;;;7.45;6.05;;;;;;;;;;5115333;28;20048;-87
2022/08/18 08:10:27;;;;;;;7.38;5.50;;;;;;;;;;5097075;28;20023;-89
2022/08/18 08:13:09;;;;;;;8.02;5.40;;;;;;;;;;5097090;28;20020;-89
2022/08/18 08:16:11;;;;;;;9.02;5.80;;;;;;;;;;5115039;28;20085;-89
2022/08/18 08:18:51;;;;;;;7.13;5.32;;;;;;;;;;4996245;28;20037;-89
2022/08/18 08:21:19;;;;;;;9.15;4.97;;;;;;;;;;5085475;28;20397;-88
2022/08/18 08:23:49;;;;;;;7.13;4.40;;;;;;;;;;5093179;28;20027;-89
2022/08/18 08:26:34;;;;;;;7.88;3.97;;;;;;;;;;5094351;28;20058;-89
2022/08/18 08:29:03;;;;;;;12.48;5.03;;;;;;;;;;5093953;28;20024;-89
2022/08/18 08:31:38;;;;;;;9.18;4.65;;;;;;;;;;5094533;28;20039;-88
2022/08/18 08:34:09;;;;;;;8.98;4.13;;;;;;;;;;5094114;28;20493;-89
2022/08/18 08:36:38;;;;;;;9.95;4.35;;;;;;;;;;5093846;28;20028;-90
2022/08/18 08:39:27;;;;;;;6.70;4.43;;;;;;;;;;5075749;28;20020;-90
2022/08/18 08:41:56;;;;;;;7.28;4.75;;;;;;;;;;5075909;28;20024;-89
2022/08/18 08:44:22;;;;;;;6.70;4.50;;;;;;;;;;5094145;28;20024;-90
2022/08/18 08:46:54;;;;;;;5.15;4.25;;;;;;;;;;5094272;28;20031;-90
2022/08/18 08:49:20;;;;;;;;;;;;;;;;;;5094521;28;20043;-90
2022/08/18 08:51:49;;;;;;;6.13;3.90;;;;;;;;;;5093886;28;19912;-90
2022/08/18 08:54:25;;;;;;;9.15;3.78;;;;;;;;;;5093772;28;20099;-90
2022/08/18 08:56:53;;;;;;;5.43;3.72;;;;;;;;;;5076341;28;20471;-89
2022/08/18 08:59:20;;;;;;;7.90;3.60;;;;;;;;;;5077127;28;20024;-90
2022/08/18 09:01:49;;;;;;;7.82;4.40;;;;;;;;;;5094755;28;20028;-90
2022/08/18 09:04:28;;;;;;;7.00;3.90;;;;;;;;;;5114399;28;20107;-90
2022/08/18 09:06:54;;;;;;;5.85;4.07;;;;;;;;;;5096359;28;20028;-90
2022/08/18 09:09:23;;;;;;;6.72;3.90;;;;;;;;;;5113646;28;20454;-90
2022/08/18 09:12:00;;;;;;;6.28;3.30;;;;;;;;;;5114333;28;20020;-90
2022/08/18 09:14:29;;;;;;;5.38;3.47;;;;;;;;;;5114290;28;20050;-90
2022/08/18 09:17:22;;;;;;;5.28;3.67;;;;;;;;;;5114235;28;20030;-89
2022/08/18 09:19:57;;;;;;;6.47;3.88;;;;;;;;;;5084278;28;20035;-90
2022/08/18 09:22:23;;;;;;;9.40;3.50;;;;;;;;;;5114474;28;20437;-91
2022/08/18 09:24:51;;;;;;;3.33;2.78;;;;;;;;;;5114127;28;20063;-90
2022/08/18 09:27:40;;;;;;;3.22;2.88;;;;;;;;;;5096108;28;20053;-91
2022/08/18 09:30:09;;;;;;;4.40;3.05;;;;;;;;;;5112290;28;20022;-81
2022/08/18 09:33:05;;;;;;;5.45;3.00;;;;;;;;;;5113021;28;20050;-89
2022/08/18 09:35:39;;;;;;;6.15;3.60;;;;;;;;;;5021339;28;20141;-88
2022/08/18 09:41:32;;;;;;;8.93;3.47;;;;;;;;;;5093220;28;20054;-88
2022/08/18 09:44:10;;;;;;;5.20;4.05;;;;;;;;;;5093413;28;20024;-88
2022/08/18 09:46:56;;;;;;;6.35;2.88;;;;;;;;;;5074781;28;20494;-87
2022/08/18 09:49:23;;;;;;;14.35;3.47;;;;;;;;;;5091375;28;20055;-87
2022/08/18 09:51:50;;;;;;;4.95;3.50;;;;;;;;;;5074625;28;20103;-87
2022/08/18 09:54:17;;;;;;;6.22;3.88;;;;;;;;;;5092776;28;20027;-88
2022/08/18 09:56:49;;;;;;;7.63;3.22;;;;;;;;;;5074504;28;20405;-88
2022/08/18 09:59:15;;;;;;;;;;;;;;;;;;5075052;28;20081;-88
2022/08/18 10:01:41;;;;;;;6.47;3.45;;;;;;;;;;5092665;28;19916;-88
2022/08/18 10:04:13;;;;;;;4.85;2.72;;;;;;;;;;5112546;28;20066;-87
2022/08/18 10:06:43;;;;;;;8.25;3.13;;;;;;;;;;5094288;28;20077;-87
2022/08/18 10:09:19;;;;;;;4.63;2.90;;;;;;;;;;5120190;28;20027;-87
2022/08/18 10:11:52;;;;;;;5.10;2.72;;;;;;;;;;5133095;28;20030;-87
2022/08/18 10:14:37;;;;;;;5.65;3.28;;;;;;;;;;5099744;28;20061;-86
2022/08/18 10:17:20;;;;;;;6.85;3.40;;;;;;;;;;5094213;28;20024;-85
2022/08/18 10:19:49;;;;;;;8.43;3.08;;;;;;;;;;5093640;28;20032;-85
2022/08/18 10:22:32;;;;;;;2.83;2.40;;;;;;;;;;5115355;27;20422;-84
2022/08/18 10:24:58;;;;;;;3.97;2.45;;;;;;;;;;5116382;27;20027;-86
2022/08/18 10:27:47;;;;;;;5.57;2.55;;;;;;;;;;5116058;28;20102;-85
2022/08/18 10:30:36;;;;;;;3.83;2.40;;;;;;;;;;5086983;28;20478;-85
2022/08/18 10:33:05;;;;;;;7.47;2.55;;;;;;;;;;5107205;27;20031;-85
2022/08/18 10:35:37;;;;;;;4.10;2.58;;;;;;;;;;5118167;27;20163;-85
2022/08/18 10:38:12;;;;;;;3.13;2.63;;;;;;;;;;5136499;27;20030;-84
2022/08/18 10:40:40;;;;;;;3.90;2.70;;;;;;;;;;5118156;27;20529;-84
2022/08/18 10:43:22;;;;;;;7.63;2.85;;;;;;;;;;5118037;27;20031;-84
2022/08/18 10:45:53;;;;;;;5.07;3.10;;;;;;;;;;5118117;27;20462;-85
2022/08/18 10:48:46;;;;;;;2.83;2.50;;;;;;;;;;5112587;28;20024;-85
2022/08/18 10:51:12;;;;;;;5.43;3.05;;;;;;;;;;5077296;28;20111;-85
2022/08/18 10:53:56;;;;;;;8.38;3.78;;;;;;;;;;5081723;28;20016;-85
2022/08/18 10:56:24;;;;;;;5.63;2.92;;;;;;;;;;5109499;28;20044;-85
2022/08/18 10:58:59;;;;;;;6.00;3.08;;;;;;;;;;5076830;28;20086;-85
2022/08/18 11:01:33;;;;;;;4.32;3.10;;;;;;;;;;5095214;28;20028;-84
2022/08/18 11:04:21;;;;;;;4.93;3.20;;;;;;;;;;5076328;28;20546;-83
2022/08/18 11:07:04;;;;;;;6.47;3.60;;;;;;;;;;5095046;28;20028;-85
2022/08/18 11:09:30;;;;;;;5.20;3.10;;;;;;;;;;5076676;28;20028;-86
2022/08/18 11:11:58;;;;;;;5.90;3.13;;;;;;;;;;5076883;28;20032;-86
2022/08/18 11:14:43;;;;;;;7.40;3.22;;;;;;;;;;5094713;28;20850;-85
2022/08/18 11:17:27;;;;;;;5.90;2.80;;;;;;;;;;5076568;28;20085;-85
2022/08/18 11:19:54;;;;;;;8.13;3.33;;;;;;;;;;5094764;28;20028;-83
2022/08/18 11:22:21;;;;;;;6.40;3.10;;;;;;;;;;5094863;28;20032;-83
2022/08/18 11:24:48;;;;;;;5.65;3.00;;;;;;;;;;5094977;28;20012;-86
2022/08/18 11:27:19;;;;;;;5.13;3.13;;;;;;;;;;5095107;28;20020;-88
2022/08/18 11:29:45;;;;;;;4.93;3.70;;;;;;;;;;5094660;28;20020;-88
2022/08/18 11:32:27;;;;;;;5.35;3.17;;;;;;;;;;5075864;28;20083;-87
2022/08/18 11:35:00;;;;;;;7.17;3.33;;;;;;;;;;5094495;28;20350;-88
2022/08/18 11:37:29;;;;;;;3.60;3.25;;;;;;;;;;5076713;28;20102;-90
2022/08/18 11:39:58;;;;;;;8.02;3.50;;;;;;;;;;5076220;28;20447;-86
2022/08/18 11:42:33;;;;;;;8.20;3.40;;;;;;;;;;5075489;28;20020;-86
2022/08/18 11:45:04;;;;;;;4.32;2.70;;;;;;;;;;5075965;28;20028;-85
2022/08/18 11:47:30;;;;;;;5.68;3.00;;;;;;;;;;5075999;28;20028;-86
2022/08/18 11:49:58;;;;;;;6.82;2.70;;;;;;;;;;5076151;28;20028;-84
2022/08/18 11:52:26;;;;;;;3.35;2.25;;;;;;;;;;5075767;28;20024;-88
2022/08/18 11:54:58;;;;;;;4.38;2.40;;;;;;;;;;5092694;28;20055;-86
2022/08/18 11:57:30;;;;;;;4.38;2.58;;;;;;;;;;5088666;28;20048;-86
2022/08/18 11:59:56;;;;;;;3.70;2.50;;;;;;;;;;5095921;28;20019;-87
2022/08/18 12:02:24;;;;;;;2.92;2.10;;;;;;;;;;5114598;28;20051;-86
2022/08/18 12:04:59;;;;;;;3.83;2.10;;;;;;;;;;5114119;28;20027;-85
2022/08/18 12:07:30;;;;;;;3.50;2.30;;;;;;;;;;5114206;28;20359;-86
2022/08/18 12:10:16;;;;;;;5.68;2.47;;;;;;;;;;5095910;28;20047;-85
2022/08/18 12:12:51;;;;;;;3.53;2.53;;;;;;;;;;5114097;28;20015;-85
2022/08/18 12:15:17;;;;;;;4.57;2.50;;;;;;;;;;5114001;28;20077;-86
2022/08/18 12:17:44;;;;;;;3.90;2.72;;;;;;;;;;5095607;28;20028;-86
2022/08/18 12:20:10;;;;;;;7.65;2.63;;;;;;;;;;5095695;28;20576;-85
2022/08/18 12:22:37;;;;;;;4.57;2.83;;;;;;;;;;5113941;28;20482;-85
2022/08/18 12:25:05;;;;;;;9.55;3.35;;;;;;;;;;5095411;28;20118;-85
2022/08/18 12:27:31;;;;;;;4.90;2.78;;;;;;;;;;5113674;28;20389;-85
2022/08/18 12:29:57;;;;;;;15.00;3.45;;;;;;;;;;5095782;28;20111;-84
2022/08/18 12:32:24;;;;;;;5.15;3.00;;;;;;;;;;5095416;28;20030;-85
2022/08/18 12:34:51;;;;;;;6.15;3.22;;;;;;;;;;5113655;28;20106;-85
2022/08/18 12:37:20;;;;;;;4.93;3.17;;;;;;;;;;5113424;28;20090;-86
2022/08/18 12:39:46;;;;;;;6.50;2.95;;;;;;;;;;5113436;28;20043;-85
2022/08/18 12:42:12;;;;;;;16.08;3.63;;;;;;;;;;5113658;28;20028;-85
2022/08/18 12:44:40;;;;;;;5.57;3.17;;;;;;;;;;5113870;28;20016;-85
2022/08/18 12:47:09;;;;;;;6.40;3.58;;;;;;;;;;5094515;28;20450;-85
2022/08/18 12:49:35;;;;;;;4.28;2.92;;;;;;;;;;5095388;28;20126;-86
2022/08/18 12:52:01;;;;;;;7.57;3.70;;;;;;;;;;5114098;28;20055;-84
2022/08/18 12:54:27;;;;;;;5.57;3.15;;;;;;;;;;5113439;28;20453;-80
2022/08/18 12:56:56;;;;;;;4.15;3.00;;;;;;;;;;5106467;27;20070;-84
2022/08/18 12:59:22;;;;;;;5.45;3.00;;;;;;;;;;5134533;27;20015;-83
2022/08/18 13:01:48;;;;;;;4.95;2.92;;;;;;;;;;5116365;27;20056;-84
2022/08/18 13:04:15;;;;;;;5.25;2.80;;;;;;;;;;5134837;27;20038;-84
2022/08/18 13:06:52;;;;;;;5.13;2.85;;;;;;;;;;5135079;27;20019;-84
2022/08/18 13:09:19;;;;;;;4.72;2.75;;;;;;;;;;5115942;27;20072;-84
2022/08/18 13:11:45;;;;;;;5.22;3.28;;;;;;;;;;5117064;27;20030;-84
2022/08/18 13:14:14;;;;;;;3.70;2.60;;;;;;;;;;5128802;27;20074;-87
2022/08/18 13:16:41;;;;;;;4.68;2.90;;;;;;;;;;5095243;28;20024;-84
2022/08/18 13:19:08;;;;;;;7.68;3.05;;;;;;;;;;5095754;28;20020;-84
2022/08/18 13:21:35;;;;;;;5.32;3.00;;;;;;;;;;5113765;28;20458;-84
2022/08/18 13:24:01;;;;;;;6.90;2.90;;;;;;;;;;5113970;28;20024;-85
2022/08/18 13:26:29;;;;;;;3.75;2.92;;;;;;;;;;5114105;28;20019;-84
2022/08/18 13:28:55;;;;;;;5.95;2.95;;;;;;;;;;5134924;28;20024;-84
2022/08/18 13:31:22;;;;;;;4.50;2.90;;;;;;;;;;5100486;28;20443;-84
2022/08/18 13:33:49;;;;;;;5.50;2.70;;;;;;;;;;5114122;28;20019;-87
2022/08/18 13:36:15;;;;;;;7.38;2.72;;;;;;;;;;5095638;28;20472;-84
2022/08/18 13:38:42;;;;;;;5.38;2.70;;;;;;;;;;5114108;28;20422;-85
2022/08/18 13:41:08;;;;;;;6.32;2.67;;;;;;;;;;5101258;28;20027;-84
2022/08/18 13:43:37;;;;;;;5.25;2.15;;;;;;;;;;5115726;28;20118;-84
2022/08/18 13:46:06;;;;;;;7.72;3.08;;;;;;;;;;5102246;28;20107;-86
2022/08/18 13:48:32;;;;;;;3.90;2.22;;;;;;;;;;5113266;28;20016;-87
2022/08/18 13:51:00;;;;;;;5.50;2.50;;;;;;;;;;5113582;28;20058;-86
2022/08/18 13:53:27;;;;;;;7.43;2.15;;;;;;;;;;5113518;28;20457;-86
2022/08/18 13:55:53;;;;;;;6.72;2.40;;;;;;;;;;5114098;28;20019;-85
2022/08/18 13:58:19;;;;;;;4.47;2.10;;;;;;;;;;5099119;28;20479;-86
2022/08/18 14:00:55;;;;;;;3.90;2.30;;;;;;;;;;5099095;28;20123;-86
2022/08/18 14:03:22;;;;;;;4.38;2.13;;;;;;;;;;5117589;28;20024;-86
2022/08/18 14:05:49;;;;;;;4.13;2.47;;;;;;;;;;5117316;28;20020;-85
2022/08/18 14:08:16;;;;;;;4.68;2.20;;;;;;;;;;5109323;28;20028;-86
2022/08/18 14:10:42;;;;;;;3.35;2.10;;;;;;;;;;5078497;28;20146;-86
2022/08/18 14:13:08;;;;;;;3.67;2.10;;;;;;;;;;5096882;28;20031;-85
2022/08/18 14:15:36;;;;;;;4.20;2.13;;;;;;;;;;5096803;28;20024;-85
2022/08/18 14:18:03;;;;;;;3.38;1.88;;;;;;;;;;5078176;28;20031;-83
2022/08/18 14:28:44;;;;;;;4.15;2.33;;;;;;;;;;5096537;28;20038;-87
2022/08/18 14:31:10;;;;;;;4.43;2.10;;;;;;;;;;5096636;28;20081;-86
2022/08/18 14:33:37;;;;;;;4.72;2.03;;;;;;;;;;5077800;28;20060;-86
2022/08/18 14:36:07;;;;;;;3.90;2.20;;;;;;;;;;5095822;28;20382;-85
2022/08/18 14:38:34;;;;;;;5.05;2.00;;;;;;;;;;5077948;28;20024;-83
2022/08/18 14:41:02;;;;;;;3.05;2.00;;;;;;;;;;5078022;28;20031;-83
2022/08/18 14:43:28;;;;;;;3.05;2.00;;;;;;;;;;5096705;28;20355;-85
2022/08/18 14:45:55;;;;;;;2.95;2.10;;;;;;;;;;5100713;28;20456;-84
2022/08/18 14:48:21;;;;;;;5.05;2.35;;;;;;;;;;5111569;28;20034;-85
2022/08/18 14:50:49;;;;;;;2.80;2.15;;;;;;;;;;5096462;28;20020;-84
2022/08/18 14:53:16;;;;;;;4.25;1.90;;;;;;;;;;5096371;28;20154;-88
2022/08/18 14:55:42;;;;;;;5.43;2.72;;;;;;;;;;5077315;28;20464;-87
2022/08/18 14:58:08;;;;;;;5.55;2.10;;;;;;;;;;5077838;28;20024;-90
2022/08/18 15:00:35;;;;;;;3.25;2.30;;;;;;;;;;5077809;28;20058;-88
2022/08/18 15:03:03;;;;;;;4.22;2.15;;;;;;;;;;5095760;28;20447;-83
2022/08/18 15:05:31;;;;;;;3.63;2.00;;;;;;;;;;5095758;28;20027;-89
2022/08/18 15:07:57;;;;;;;3.63;2.25;;;;;;;;;;5076078;28;20481;-84
2022/08/18 15:10:24;;;;;;;3.40;2.30;;;;;;;;;;5077963;28;20047;-81